createdAt,value
2022-08-05T00:01:28.616Z,56.80
2022-08-05T00:03:56.988Z,57.00
2022-08-05T00:06:32.384Z,57.10
2022-08-05T00:09:00.616Z,57.10
2022-08-05T00:11:34.802Z,57.70
2022-08-05T00:14:12.870Z,57.00
2022-08-05T00:16:52.661Z,56.90
2022-08-05T00:19:25.071Z,57.10
2022-08-05T00:22:01.171Z,57.00
2022-08-05T00:24:30.966Z,56.90
2022-08-05T00:26:59.100Z,56.90
2022-08-05T00:29:27.480Z,57.10
2022-08-05T00:32:12.141Z,57.00
2022-08-05T00:34:56.345Z,57.20
2022-08-05T00:37:51.114Z,57.00
2022-08-05T00:42:53.953Z,56.50
2022-08-05T00:45:28.043Z,57.00
2022-08-05T00:48:10.291Z,57.10
2022-08-05T00:50:38.442Z,57.10
2022-08-05T00:53:09.937Z,56.90
2022-08-05T00:55:54.139Z,57.00
2022-08-05T00:58:20.877Z,56.90
2022-08-05T01:00:55.381Z,57.00
2022-08-05T01:03:33.482Z,57.50
2022-08-05T01:06:01.632Z,57.00
2022-08-05T01:08:42.724Z,57.00
2022-08-05T01:11:33.859Z,57.00
2022-08-05T01:14:33.402Z,56.90
2022-08-05T01:17:05.330Z,57.00
2022-08-05T01:20:02.451Z,57.00
2022-08-05T01:22:32.369Z,57.00
2022-08-05T01:25:40.020Z,57.20
2022-08-05T01:28:13.917Z,57.10
2022-08-05T01:30:53.825Z,57.10
2022-08-05T01:33:26.232Z,57.40
2022-08-05T01:35:55.390Z,57.00
2022-08-05T01:38:29.297Z,57.00
2022-08-05T01:41:01.537Z,56.70
2022-08-05T01:43:29.882Z,57.10
2022-08-05T01:45:57.573Z,57.30
2022-08-05T01:48:27.260Z,57.20
2022-08-05T01:50:56.657Z,56.70
2022-08-05T01:53:54.668Z,57.00
2022-08-05T01:58:13.576Z,57.30
2022-08-05T01:59:06.245Z,57.40
2022-08-05T02:01:39.730Z,58.00
2022-08-05T02:04:10.182Z,57.20
2022-08-05T02:06:39.356Z,57.30
2022-08-05T02:09:07.226Z,57.50
2022-08-05T02:12:00.106Z,56.90
2022-08-05T02:14:56.757Z,57.40
2022-08-05T02:18:32.101Z,57.60
2022-08-05T02:20:22.212Z,57.40
2022-08-05T02:23:05.319Z,57.30
2022-08-05T02:25:49.803Z,57.10
2022-08-05T02:28:28.465Z,57.20
2022-08-05T02:31:07.601Z,57.20
2022-08-05T02:33:39.771Z,57.30
2022-08-05T02:36:13.290Z,57.30
2022-08-05T02:38:53.149Z,57.50
2022-08-05T02:41:22.988Z,57.60
2022-08-05T02:44:06.582Z,57.50
2022-08-05T02:46:53.789Z,57.50
2022-08-05T02:49:36.548Z,57.50
2022-08-05T02:52:08.726Z,57.50
2022-08-05T02:54:41.206Z,57.60
2022-08-05T02:58:09.834Z,57.70
2022-08-05T02:59:59.578Z,57.70
2022-08-05T03:02:31.609Z,57.70
2022-08-05T03:04:59.675Z,57.60
2022-08-05T03:08:00.912Z,57.60
2022-08-05T03:10:16.067Z,57.20
2022-08-05T03:12:52.347Z,57.70
2022-08-05T03:15:20.446Z,57.80
2022-08-05T03:17:47.195Z,57.70
2022-08-05T03:20:14.028Z,57.30
2022-08-05T03:22:44.163Z,57.80
2022-08-05T03:25:33.788Z,58.00
2022-08-05T03:28:08.284Z,58.10
2022-08-05T03:30:36.595Z,57.50
2022-08-05T03:33:05.851Z,58.10
2022-08-05T03:35:33.769Z,58.10
2022-08-05T03:38:01.377Z,58.10
2022-08-05T03:40:32.393Z,58.10
2022-08-05T03:43:01.341Z,58.10
2022-08-05T03:45:58.117Z,58.00
2022-08-05T03:48:27.489Z,58.00
2022-08-05T03:52:37.481Z,57.40
2022-08-05T03:55:50.403Z,58.00
2022-08-05T03:56:46.320Z,57.80
2022-08-05T03:59:29.083Z,60.70
2022-08-05T04:02:15.086Z,58.70
2022-08-05T04:04:44.788Z,57.80
2022-08-05T04:07:11.898Z,57.60
2022-08-05T04:09:53.636Z,57.70
2022-08-05T04:12:24.578Z,57.80
2022-08-05T04:14:52.447Z,58.00
2022-08-05T04:17:19.145Z,60.00
2022-08-05T04:19:54.309Z,62.60
2022-08-05T04:22:21.406Z,57.80
2022-08-05T04:24:52.429Z,58.10
2022-08-05T04:27:19.517Z,61.50
2022-08-05T04:30:07.395Z,58.10
2022-08-05T04:32:35.767Z,58.10
2022-08-05T04:35:03.732Z,58.10
2022-08-05T04:38:02.158Z,58.20
2022-08-05T04:40:19.835Z,58.20
2022-08-05T04:42:46.581Z,58.10
2022-08-05T04:45:14.174Z,59.60
2022-08-05T04:48:27.268Z,58.40
2022-08-05T04:51:03.044Z,57.60
2022-08-05T04:53:39.031Z,58.00
2022-08-05T04:56:32.275Z,58.20
2022-08-05T04:58:56.261Z,58.20
2022-08-05T05:02:05.654Z,58.20
2022-08-05T05:04:10.416Z,58.30
2022-08-05T05:06:40.104Z,58.40
2022-08-05T05:09:14.200Z,58.40
2022-08-05T05:11:53.248Z,58.40
2022-08-05T05:14:31.685Z,58.50
2022-08-05T05:17:01.740Z,59.20
2022-08-05T05:19:36.405Z,60.00
2022-08-05T05:22:22.920Z,60.40
2022-08-05T05:24:57.373Z,60.90
2022-08-05T05:27:45.867Z,61.80
2022-08-05T05:30:31.143Z,62.40
2022-08-05T05:33:03.867Z,63.10
2022-08-05T05:35:47.910Z,62.00
2022-08-05T05:38:22.469Z,62.50
2022-08-05T05:40:55.170Z,61.70
2022-08-05T05:43:54.202Z,62.10
2022-08-05T05:46:15.965Z,61.70
2022-08-05T05:48:46.068Z,61.50
2022-08-05T05:51:22.410Z,61.40
2022-08-05T05:53:57.786Z,61.40
2022-08-05T05:56:33.065Z,60.70
2022-08-05T05:59:05.079Z,61.20
2022-08-05T06:01:38.182Z,61.20
2022-08-05T06:04:11.761Z,60.90
2022-08-05T06:06:42.595Z,61.30
2022-08-05T06:09:17.388Z,61.00
2022-08-05T06:12:02.023Z,61.00
2022-08-05T06:14:30.711Z,61.00
2022-08-05T06:16:57.891Z,60.80
2022-08-05T06:19:34.079Z,60.60
2022-08-05T06:22:06.747Z,60.40
2022-08-05T06:24:34.985Z,60.20
2022-08-05T06:27:04.026Z,60.20
2022-08-05T06:29:49.660Z,60.10
2022-08-05T06:32:25.056Z,60.00
2022-08-05T06:34:57.104Z,60.00
2022-08-05T06:37:58.311Z,60.00
2022-08-05T06:40:13.818Z,59.40
2022-08-05T06:42:40.676Z,59.90
2022-08-05T06:45:09.184Z,59.80
2022-08-05T06:48:37.162Z,59.90
2022-08-05T06:50:23.759Z,59.90
2022-08-05T06:52:58.770Z,59.70
2022-08-05T06:55:36.143Z,59.80
2022-08-05T06:58:30.169Z,59.70
2022-08-05T07:00:50.617Z,59.70
2022-08-05T07:03:17.589Z,59.70
2022-08-05T07:05:46.330Z,59.70
2022-08-05T07:08:13.346Z,60.00
2022-08-05T07:10:52.315Z,60.00
2022-08-05T07:13:58.382Z,60.00
2022-08-05T07:18:01.082Z,59.90
2022-08-05T07:22:28.347Z,60.00
2022-08-05T07:25:23.775Z,60.00
2022-08-05T07:27:58.469Z,60.20
2022-08-05T07:30:38.945Z,60.10
2022-08-05T07:33:16.180Z,60.40
2022-08-05T07:36:01.938Z,60.40
2022-08-05T07:38:34.378Z,60.10
2022-08-05T07:42:09.648Z,60.00
2022-08-05T07:43:51.473Z,60.50
2022-08-05T07:46:24.242Z,60.30
2022-08-05T07:49:03.075Z,60.20
2022-08-05T07:51:37.174Z,59.60
2022-08-05T07:54:05.962Z,60.40
2022-08-05T07:57:00.146Z,60.40
2022-08-05T07:59:31.103Z,60.30
2022-08-05T08:02:15.655Z,60.40
2022-08-05T08:04:48.492Z,60.60
2022-08-05T08:07:17.683Z,60.50
2022-08-05T08:09:45.976Z,60.60
2022-08-05T08:12:35.181Z,60.50
2022-08-05T08:15:04.304Z,60.30
2022-08-05T08:17:32.553Z,60.40
2022-08-05T08:20:22.413Z,60.40
2022-08-05T08:22:57.454Z,60.40
2022-08-05T08:25:26.478Z,60.50
2022-08-05T08:27:54.250Z,60.40
2022-08-05T08:30:31.311Z,60.30
2022-08-05T08:33:13.846Z,60.30
2022-08-05T08:35:52.982Z,60.20
2022-08-05T08:38:35.103Z,60.20
2022-08-05T08:41:13.959Z,60.50
2022-08-05T08:45:24.099Z,60.20
2022-08-05T08:46:31.985Z,60.80
2022-08-05T08:50:03.827Z,60.30
2022-08-05T08:52:24.186Z,60.30
2022-08-05T08:54:55.425Z,60.40
2022-08-05T08:57:25.788Z,60.20
2022-08-05T09:00:10.479Z,60.40
2022-08-05T09:02:44.287Z,60.20
2022-08-05T09:05:17.332Z,60.20
2022-08-05T09:07:56.702Z,60.30
2022-08-05T09:10:27.662Z,60.30
2022-08-05T09:13:05.028Z,60.20
2022-08-05T09:15:32.563Z,60.30
2022-08-05T09:18:09.396Z,60.30
2022-08-05T09:20:38.362Z,60.20
2022-08-05T09:23:07.927Z,60.00
2022-08-05T09:26:00.897Z,60.00
2022-08-05T09:28:32.102Z,60.00
2022-08-05T09:31:22.093Z,59.60
2022-08-05T09:34:02.997Z,60.10
2022-08-05T09:36:56.234Z,60.10
2022-08-05T09:39:41.346Z,60.10
2022-08-05T09:42:20.269Z,60.10
2022-08-05T09:44:56.033Z,60.10
2022-08-05T09:47:36.383Z,60.00
2022-08-05T09:50:18.096Z,60.10
2022-08-05T09:53:01.146Z,60.10
2022-08-05T09:55:56.369Z,60.10
2022-08-05T09:58:21.555Z,60.00
2022-08-05T10:01:15.209Z,60.10
2022-08-05T10:04:01.966Z,60.00
2022-08-05T10:06:31.718Z,59.90
2022-08-05T10:09:27.428Z,59.90
2022-08-05T10:11:55.515Z,59.80
2022-08-05T10:14:24.172Z,59.80
2022-08-05T10:16:56.227Z,59.90
2022-08-05T10:20:03.224Z,60.10
2022-08-05T10:22:15.530Z,60.40
2022-08-05T10:24:56.977Z,60.10
2022-08-05T10:27:26.032Z,60.10
2022-08-05T10:31:20.620Z,60.10
2022-08-05T10:33:01.793Z,60.60
2022-08-05T10:35:33.715Z,60.20
2022-08-05T10:38:08.520Z,60.50
2022-08-05T10:40:47.064Z,60.20
2022-08-05T10:43:35.828Z,60.50
2022-08-05T10:46:07.081Z,60.40
2022-08-05T10:48:56.614Z,60.40
2022-08-05T10:51:29.197Z,60.30
2022-08-05T10:54:05.907Z,60.40
2022-08-05T10:56:53.172Z,60.50
2022-08-05T11:00:03.553Z,60.60
2022-08-05T11:02:34.820Z,60.60
2022-08-05T11:05:08.522Z,60.70
2022-08-05T11:08:02.752Z,60.80
2022-08-05T11:10:38.045Z,60.80
2022-08-05T11:13:40.492Z,60.70
2022-08-05T11:16:33.937Z,60.60
2022-08-05T11:20:16.641Z,60.80
2022-08-05T11:22:42.265Z,60.40
2022-08-05T11:26:05.069Z,60.60
2022-08-05T11:28:18.818Z,60.60
2022-08-05T11:30:58.489Z,60.60
2022-08-05T11:33:34.604Z,60.70
2022-08-05T11:36:14.366Z,60.50
2022-08-05T11:38:45.488Z,60.90
2022-08-05T11:41:54.495Z,61.20
2022-08-05T11:44:21.549Z,60.50
2022-08-05T11:47:12.131Z,60.50
2022-08-05T11:49:43.256Z,60.60
2022-08-05T11:52:29.304Z,60.00
2022-08-05T11:54:57.889Z,60.60
2022-08-05T11:57:30.630Z,60.70
2022-08-05T12:00:24.824Z,60.60
2022-08-05T12:02:54.287Z,60.80
2022-08-05T12:05:36.498Z,60.80
2022-08-05T12:08:10.849Z,60.90
2022-08-05T12:10:45.584Z,60.40
2022-08-05T12:13:27.772Z,61.10
2022-08-05T12:16:14.580Z,61.00
2022-08-05T12:18:48.961Z,60.90
2022-08-05T12:21:23.966Z,60.90
2022-08-05T12:24:08.808Z,61.00
2022-08-05T12:26:44.049Z,61.00
2022-08-05T12:29:16.266Z,61.00
2022-08-05T12:31:53.860Z,61.00
2022-08-05T12:34:28.723Z,61.00
2022-08-05T12:37:00.839Z,61.30
2022-08-05T12:39:37.535Z,61.30
2022-08-05T12:42:18.087Z,61.10
2022-08-05T12:44:47.472Z,61.10
2022-08-05T12:47:26.128Z,61.10
2022-08-05T12:50:04.595Z,61.10
2022-08-05T12:52:39.265Z,61.20
2022-08-05T12:55:22.027Z,61.20
2022-08-05T12:58:50.508Z,61.30
2022-08-05T13:02:02.931Z,61.60
2022-08-05T13:03:32.381Z,61.30
2022-08-05T13:06:00.826Z,61.20
2022-08-05T13:08:32.307Z,62.10
2022-08-05T13:11:02.780Z,61.20
2022-08-05T13:14:04.699Z,61.00
2022-08-05T13:16:19.901Z,61.00
2022-08-05T13:18:55.235Z,61.00
2022-08-05T13:21:28.149Z,61.00
2022-08-05T13:24:05.524Z,61.00
2022-08-05T13:26:32.384Z,60.80
2022-08-05T13:28:59.495Z,60.70
2022-08-05T13:31:34.082Z,60.60
2022-08-05T13:34:22.239Z,60.60
2022-08-05T13:36:53.536Z,60.70
2022-08-05T13:40:14.660Z,60.60
2022-08-05T13:42:07.855Z,60.60
2022-08-05T13:44:45.656Z,60.50
2022-08-05T13:47:35.019Z,60.40
2022-08-05T13:50:04.697Z,60.40
2022-08-05T13:52:35.348Z,60.40
2022-08-05T13:55:07.813Z,60.40
2022-08-05T13:57:48.517Z,60.40
2022-08-05T14:00:19.584Z,60.40
2022-08-05T14:02:54.120Z,60.40
2022-08-05T14:05:29.493Z,60.50
2022-08-05T14:08:20.499Z,60.40
2022-08-05T14:10:53.845Z,60.40
2022-08-05T14:13:29.870Z,60.40
2022-08-05T14:16:08.476Z,60.40
2022-08-05T14:18:38.298Z,60.40
2022-08-05T14:22:08.435Z,60.40
2022-08-05T14:23:51.765Z,60.40
2022-08-05T14:26:35.756Z,60.40
2022-08-05T14:29:05.571Z,60.30
2022-08-05T14:32:03.917Z,59.80
2022-08-05T14:34:29.950Z,60.40
2022-08-05T14:37:03.418Z,60.40
2022-08-05T14:39:31.170Z,60.40
2022-08-05T14:42:20.743Z,60.70
2022-08-05T14:44:48.872Z,61.30
2022-08-05T14:47:15.539Z,61.30
2022-08-05T14:49:58.530Z,60.70
2022-08-05T14:52:51.540Z,60.60
2022-08-05T14:55:15.451Z,60.60
2022-08-05T14:57:54.850Z,60.60
2022-08-05T15:00:28.236Z,60.20
2022-08-05T15:02:56.776Z,60.80
2022-08-05T15:05:30.145Z,60.80
2022-08-05T15:08:16.884Z,60.80
2022-08-05T15:11:00.478Z,61.00
2022-08-05T15:13:28.546Z,61.10
2022-08-05T15:16:13.172Z,61.00
2022-08-05T15:18:40.035Z,60.90
2022-08-05T15:21:08.618Z,60.80
2022-08-05T15:23:35.440Z,60.80
2022-08-05T15:26:04.785Z,60.80
2022-08-05T15:28:31.509Z,60.80
2022-08-05T15:30:58.286Z,60.80
2022-08-05T15:34:19.025Z,61.00
2022-08-05T15:36:17.267Z,60.90
2022-08-05T15:38:44.854Z,60.80
2022-08-05T15:41:22.397Z,61.00
2022-08-05T15:43:51.670Z,61.00
2022-08-05T15:46:20.440Z,61.10
2022-08-05T15:48:54.753Z,61.60
2022-08-05T15:52:12.887Z,60.70
2022-08-05T15:54:15.801Z,61.40
2022-08-05T15:56:42.710Z,61.80
2022-08-05T15:59:22.030Z,61.00
2022-08-05T16:01:52.956Z,61.00
2022-08-05T16:04:25.409Z,61.00
2022-08-05T16:06:53.834Z,61.80
2022-08-05T16:09:23.459Z,61.00
2022-08-05T16:11:53.724Z,60.90
2022-08-05T16:14:21.644Z,60.80
2022-08-05T16:16:49.637Z,60.80
2022-08-05T16:19:18.990Z,60.70
2022-08-05T16:22:03.661Z,60.60
2022-08-05T16:24:39.555Z,60.60
2022-08-05T16:27:08.944Z,60.60
2022-08-05T16:29:37.498Z,60.50
2022-08-05T16:32:06.431Z,60.80
2022-08-05T16:34:33.312Z,60.60
2022-08-05T16:37:00.047Z,60.50
2022-08-05T16:40:04.536Z,60.50
2022-08-05T16:42:18.498Z,60.40
2022-08-05T16:44:57.083Z,60.50
2022-08-05T16:47:36.026Z,60.50
2022-08-05T16:50:09.934Z,59.90
2022-08-05T16:52:37.253Z,60.80
2022-08-05T16:55:04.781Z,60.70
2022-08-05T16:57:53.574Z,60.60
2022-08-05T17:00:26.164Z,60.50
2022-08-05T17:03:03.611Z,60.40
2022-08-05T17:05:31.993Z,60.50
2022-08-05T17:07:58.886Z,60.60
2022-08-05T17:10:26.525Z,60.60
2022-08-05T17:12:57.765Z,60.70
2022-08-05T17:15:24.677Z,60.50
2022-08-05T17:18:14.306Z,60.40
2022-08-05T17:20:42.082Z,60.40
2022-08-05T17:23:10.976Z,60.40
2022-08-05T17:25:57.754Z,60.40
2022-08-05T17:28:24.492Z,60.40
2022-08-05T17:30:52.293Z,60.40
2022-08-05T17:33:20.123Z,60.40
2022-08-05T17:36:08.369Z,60.40
2022-08-05T17:38:33.954Z,60.40
2022-08-05T17:41:01.673Z,60.40
2022-08-05T17:43:50.472Z,60.40
2022-08-05T17:46:15.625Z,60.40
2022-08-05T17:48:45.047Z,60.40
2022-08-05T17:51:14.525Z,60.40
2022-08-05T17:53:54.386Z,60.40
2022-08-05T17:56:21.590Z,60.40
2022-08-05T17:58:49.521Z,60.40
2022-08-05T18:01:18.120Z,60.40
2022-08-05T18:03:59.271Z,60.40
2022-08-05T18:06:31.427Z,60.40
2022-08-05T18:08:59.275Z,59.90
2022-08-05T18:11:32.844Z,60.40
2022-08-05T18:14:07.100Z,60.40
2022-08-05T18:16:51.248Z,60.40
2022-08-05T18:19:22.720Z,60.40
2022-08-05T18:22:08.567Z,60.40
2022-08-05T18:24:37.762Z,60.40
2022-08-05T18:27:06.852Z,60.40
2022-08-05T18:29:40.293Z,60.40
2022-08-05T18:32:12.779Z,60.40
2022-08-05T18:34:40.705Z,60.40
2022-08-05T18:37:12.003Z,60.40
2022-08-05T18:40:33.618Z,60.40
2022-08-05T18:42:25.884Z,60.40
2022-08-05T18:44:56.399Z,60.40
2022-08-05T18:47:26.882Z,60.40
2022-08-05T18:50:12.973Z,60.40
2022-08-05T18:52:51.465Z,60.40
2022-08-05T18:55:20.058Z,60.40
2022-08-05T18:57:52.718Z,60.40
2022-08-05T19:00:27.021Z,60.40
2022-08-05T19:02:56.310Z,60.30
2022-08-05T19:06:06.982Z,60.40
2022-08-05T19:08:12.300Z,60.40
2022-08-05T19:10:41.914Z,59.80
2022-08-05T19:13:12.457Z,60.40
2022-08-05T19:15:57.582Z,60.40
2022-08-05T19:18:27.473Z,60.20
2022-08-05T19:20:54.441Z,60.20
2022-08-05T19:24:05.608Z,60.40
2022-08-05T19:26:09.507Z,60.40
2022-08-05T19:28:43.175Z,60.40
2022-08-05T19:31:13.284Z,60.40
2022-08-05T19:33:48.528Z,60.40
2022-08-05T19:36:25.111Z,60.40
2022-08-05T19:38:53.678Z,60.40
2022-08-05T19:41:22.038Z,60.40
2022-08-05T19:44:12.918Z,60.40
2022-08-05T19:46:40.878Z,60.40
2022-08-05T19:49:16.485Z,60.30
2022-08-05T19:52:05.490Z,60.40
2022-08-05T19:54:32.768Z,60.30
2022-08-05T19:57:06.859Z,60.40
2022-08-05T19:59:55.505Z,60.40
2022-08-05T20:02:27.811Z,59.90
2022-08-05T20:04:59.007Z,60.40
2022-08-05T20:07:46.988Z,60.40
2022-08-05T20:10:15.244Z,60.40
2022-08-05T20:12:45.981Z,60.40
2022-08-05T20:15:15.840Z,60.40
2022-08-05T20:18:04.144Z,60.40
2022-08-05T20:20:37.991Z,60.40
2022-08-05T20:23:05.520Z,60.40
2022-08-05T20:25:39.942Z,60.40
2022-08-05T20:28:08.091Z,60.40
2022-08-05T20:30:41.318Z,59.90
2022-08-05T20:33:08.641Z,60.40
2022-08-05T20:35:40.450Z,60.40
2022-08-05T20:38:11.911Z,60.40
2022-08-05T20:40:47.607Z,60.40
2022-08-05T20:43:17.484Z,60.40
2022-08-05T20:46:06.602Z,60.40
2022-08-05T20:48:38.406Z,60.40
2022-08-05T20:51:09.054Z,60.40
2022-08-05T20:53:36.774Z,60.40
2022-08-05T20:56:09.523Z,60.40
2022-08-05T20:58:36.968Z,60.40
2022-08-05T21:01:04.622Z,60.40
2022-08-05T21:03:34.648Z,60.50
2022-08-05T21:06:01.907Z,60.50
2022-08-05T21:08:35.946Z,60.40
2022-08-05T21:11:11.599Z,60.40
2022-08-05T21:13:47.804Z,60.40
2022-08-05T21:16:23.081Z,60.40
2022-08-05T21:19:00.517Z,60.40
2022-08-05T21:21:43.994Z,60.40
2022-08-05T21:24:16.265Z,60.50
2022-08-05T21:26:58.026Z,60.60
2022-08-05T21:29:31.433Z,60.60
2022-08-05T21:31:59.646Z,60.40
2022-08-05T21:34:28.227Z,61.10
2022-08-05T21:36:55.140Z,61.80
2022-08-05T21:39:26.603Z,61.70
2022-08-05T21:42:01.685Z,62.80
2022-08-05T21:44:30.293Z,63.50
2022-08-05T21:46:58.505Z,62.70
2022-08-05T21:49:58.637Z,64.40
2022-08-05T21:52:28.109Z,63.50
2022-08-05T21:54:56.931Z,63.50
2022-08-05T21:57:32.316Z,63.50
2022-08-05T22:00:06.219Z,63.90
2022-08-05T22:02:33.501Z,64.30
2022-08-05T22:05:00.427Z,64.60
2022-08-05T22:07:39.345Z,64.60
2022-08-05T22:10:15.909Z,64.60
2022-08-05T22:12:44.798Z,64.90
2022-08-05T22:16:01.211Z,65.10
2022-08-05T22:18:05.446Z,65.20
2022-08-05T22:20:32.217Z,65.50
2022-08-05T22:23:21.326Z,65.70
2022-08-05T22:26:10.808Z,65.60
2022-08-05T22:28:38.678Z,65.80
2022-08-05T22:31:06.003Z,65.90
2022-08-05T22:33:57.050Z,65.80
2022-08-05T22:36:23.774Z,65.50
2022-08-05T22:38:51.675Z,66.00
2022-08-05T22:42:04.164Z,66.00
2022-08-05T22:44:08.458Z,66.30
2022-08-05T22:46:40.018Z,66.50
2022-08-05T22:49:46.124Z,66.80
2022-08-05T22:52:04.967Z,65.90
2022-08-05T22:54:33.665Z,66.30
2022-08-05T22:57:00.347Z,66.30
2022-08-05T22:59:43.767Z,66.60
2022-08-05T23:05:02.017Z,65.40
2022-08-05T23:07:43.778Z,65.30
2022-08-05T23:10:16.202Z,65.40
2022-08-05T23:12:47.930Z,65.50
2022-08-05T23:15:18.242Z,65.50
2022-08-05T23:20:28.709Z,65.50
2022-08-05T23:22:55.966Z,65.50
2022-08-05T23:25:52.570Z,66.10
2022-08-05T23:28:11.143Z,65.80
2022-08-05T23:30:40.451Z,65.70
2022-08-05T23:33:16.155Z,65.00
2022-08-05T23:35:56.236Z,64.70
2022-08-05T23:38:24.208Z,64.70
2022-08-05T23:40:52.746Z,64.60
2022-08-05T23:43:25.685Z,64.60
2022-08-05T23:46:21.239Z,64.30
2022-08-05T23:49:00.791Z,63.80
2022-08-05T23:51:54.060Z,64.40
2022-08-05T23:54:30.341Z,64.40
2022-08-05T23:57:04.037Z,64.40
